Airfield :
LOGIN :

Register | Disclaimer

   EN    FR    IT 

 










Legend :    VFR   Marginal VFR   IFR   Intensive IFR   Very Intensive IFR
Visi :
Ceiling :
>= 8 km
>= 3000ft
5 to 8 km
1000 to 3000 ft
1500m to 5 km
500 to 1000 ft
800 to 1500m
200 to 500 ft
< 800m
< 200 ft
Symbols :   Thunderstorms  Fog  Heavy snow  Heavy precipitations  Wind > 20 kt
SIGMETs :     Misc.  Thunderstorms  Icing  Turbulence  Mountain Waves  Volcanic Ashes







- Airport Elevation : 489 ft
- IATA code : GDN


EPGD - Gdansk

CURRENT METAR :
  • 170730Z 01006KT 9999 FEW012 20/19 Q1009

EXPIRED METARs :
  • 170700Z 32009KT CAVOK 20/18 Q1009
  • 170630Z 33009KT CAVOK 20/18 Q1009
  • 170600Z 33010KT CAVOK 19/18 Q1009
  • 170530Z 32008KT CAVOK 19/18 Q1009
  • 170500Z 32008KT CAVOK 19/18 Q1009

TAF AMD TAF EPGD
Valid from the 17 at 06:00 until the 18 at 06:00 UTC


170654Z 1706/1806 36005KT CAVOK
TEMPO 1707/1710 2000 TSRA SCT006 BKN014CB
TEMPO 1710/1806 SHRA BKN030CB
PROB40
TEMPO 1710/1720 3000 TSRA
PROB40
TEMPO 1722/1806 2000 BR BKN003
No reported NOTAMs for that airfield.



MET'MAP, your aeronautical weather chart ! - Copyright ORBIFLY December 2007 - Disclaimer

ORBIFLY MET'MAP TEAM :

Programming & Development : Alexandra Zaïnal
Concept & Development : Baudouin d'Aumeries
Co-Development & Prog : Marc-Olivier Méhu
Technical & hardware support : Manuel Goepfert

Contact : metmap@orbifly.com




SOURCES & CREDITS :

   NOAA